Terminal Aerodrome Forecast
Issued by NWS

Current Version | Previous Version | Text Only | Print | Product List | Glossary On
Versions: 1 2 3 4 5 6 7 8 9 10 11 12 13 14 15
000
FTUS46 KSGX 251700
TAFSNA
TAF
KSNA 251722Z 2518/2618 VRB04KT P6SM FEW015 SCT150
     FM251900 20009KT P6SM BKN120
     FM260200 VRB04KT P6SM BKN120
     FM261000 VRB04KT P6SM BKN012 BKN120
     FM261600 VRB04KT P6SM SCT120=

USA.gov is the U.S. government's official web portal to all federal, state and local government web resources and services.